Time;durP1;ratioP1;P1;durP2;ratioP2;P2;SDS_P1;SDS_P2;PMS_P1;PMS_P2;Temp;Humidity;BMP_temperature;BMP_pressure;BME280_temperature;BME280_humidity;BME280_pressure;Samples;Min_cycle;Max_cycle;Signal;HPM_P1;HPM_P2
2023/05/28 00:00:47;;;;;;;15.25;6.15;;;;;;;14.33;70.74;102262.13;7389337;19;20094;-51
2023/05/28 00:03:19;;;;;;;19.30;6.38;;;;;;;14.25;71.03;102262.63;7390805;19;20010;-51
2023/05/28 00:05:47;;;;;;;19.55;6.45;;;;;;;14.21;71.17;102260.25;7389094;19;20036;-50
2023/05/28 00:08:14;;;;;;;21.05;6.50;;;;;;;14.19;70.95;102260.34;7389913;19;20086;-50
2023/05/28 00:10:42;;;;;;;14.93;6.30;;;;;;;14.29;70.71;102264.13;7386720;19;20043;-48
2023/05/28 00:13:09;;;;;;;19.55;7.38;;;;;;;14.26;70.65;102263.47;7389766;19;20060;-48
2023/05/28 00:15:37;;;;;;;17.77;6.93;;;;;;;14.20;70.87;102263.88;7387609;19;20023;-47
2023/05/28 00:18:04;;;;;;;17.98;7.07;;;;;;;14.15;70.90;102267.69;7388136;19;20491;-47
2023/05/28 00:20:32;;;;;;;17.20;7.38;;;;;;;14.10;71.10;102268.94;7387357;19;20398;-47
2023/05/28 00:23:00;;;;;;;17.15;7.07;;;;;;;14.18;70.72;102268.44;7390001;19;20022;-48
2023/05/28 00:25:27;;;;;;;15.25;6.00;;;;;;;14.14;71.04;102259.78;7389371;19;20140;-51
2023/05/28 00:27:54;;;;;;;16.55;6.10;;;;;;;14.16;70.83;102265.91;7387522;19;20418;-48
2023/05/28 00:30:23;;;;;;;17.75;6.80;;;;;;;14.18;70.73;102260.44;7388089;19;20018;-47
2023/05/28 00:32:50;;;;;;;15.57;6.30;;;;;;;14.19;70.57;102256.81;7389781;19;20025;-47
2023/05/28 00:35:17;;;;;;;18.02;8.60;;;;;;;14.10;70.89;102259.13;7389471;19;20015;-50
2023/05/28 00:37:45;;;;;;;18.17;9.05;;;;;;;14.09;71.05;102269.91;7389813;19;20475;-48
2023/05/28 00:40:15;;;;;;;28.02;9.25;;;;;;;14.05;71.03;102266.59;7387764;19;20297;-48
2023/05/28 00:42:43;;;;;;;15.43;7.00;;;;;;;13.61;72.68;102259.56;7389153;19;20023;-50
2023/05/28 00:45:11;;;;;;;15.73;6.63;;;;;;;13.39;73.64;102257.41;7388344;19;20491;-52
2023/05/28 00:47:40;;;;;;;16.70;6.43;;;;;;;13.35;74.11;102253.19;7389258;19;20023;-49
2023/05/28 00:50:09;;;;;;;13.27;6.10;;;;;;;13.37;73.63;102247.81;7387949;19;20027;-47
2023/05/28 00:52:36;;;;;;;16.92;7.05;;;;;;;13.24;74.35;102249.50;7389453;19;20015;-48
2023/05/28 00:55:13;;;;;;;14.48;6.57;;;;;;;13.27;74.26;102247.50;7388626;19;20082;-49
2023/05/28 00:57:40;;;;;;;17.58;6.78;;;;;;;13.17;74.26;102238.34;7388808;19;20014;-47
2023/05/28 01:00:08;;;;;;;15.98;6.63;;;;;;;13.33;73.78;102243.63;7387391;19;20430;-48
2023/05/28 01:02:36;;;;;;;18.27;7.43;;;;;;;13.22;73.87;102240.72;7388801;19;20035;-51
2023/05/28 01:05:03;;;;;;;18.10;7.72;;;;;;;13.07;74.32;102242.50;7392404;19;20019;-50
2023/05/28 01:07:31;;;;;;;20.02;8.40;;;;;;;13.23;74.06;102243.31;7394886;19;20018;-49
2023/05/28 01:09:58;;;;;;;20.25;7.82;;;;;;;13.31;73.16;102245.50;7394216;19;20090;-48
2023/05/28 01:12:26;;;;;;;14.63;6.32;;;;;;;13.13;74.12;102244.81;7396069;19;20019;-47
2023/05/28 01:14:54;;;;;;;16.27;6.88;;;;;;;13.17;74.26;102246.34;7394935;19;20035;-50
2023/05/28 01:17:21;;;;;;;15.95;6.65;;;;;;;13.43;72.84;102247.41;7394167;19;20015;-47
2023/05/28 01:19:48;;;;;;;18.00;6.80;;;;;;;13.58;72.10;102245.59;7392797;19;20022;-49
2023/05/28 01:22:17;;;;;;;14.18;6.57;;;;;;;13.32;72.96;102247.25;7395986;19;20032;-51
2023/05/28 01:24:45;;;;;;;15.60;6.40;;;;;;;13.05;74.52;102241.72;7393404;19;20547;-50
2023/05/28 01:27:12;;;;;;;17.20;6.70;;;;;;;12.89;74.92;102244.47;7393492;19;20055;-49
2023/05/28 01:29:39;;;;;;;17.10;6.70;;;;;;;13.14;74.06;102236.72;7392506;19;20025;-47
2023/05/28 01:32:07;;;;;;;17.90;6.68;;;;;;;13.04;74.53;102234.72;7395531;19;20049;-50
2023/05/28 01:34:34;;;;;;;14.57;6.22;;;;;;;13.29;73.72;102245.63;7394593;19;20031;-51
2023/05/28 01:37:07;;;;;;;16.02;6.35;;;;;;;13.48;72.67;102252.47;7395657;19;20044;-50
2023/05/28 01:39:42;;;;;;;17.88;7.07;;;;;;;13.48;72.28;102252.47;7394288;19;20043;-52
2023/05/28 01:42:11;;;;;;;14.15;6.10;;;;;;;13.41;72.58;102249.31;7395380;19;20090;-50
2023/05/28 01:44:40;;;;;;;16.33;6.50;;;;;;;13.31;73.12;102246.34;7394040;19;20512;-50
2023/05/28 01:47:07;;;;;;;18.80;6.57;;;;;;;13.41;72.62;102250.19;7391497;19;20090;-50
2023/05/28 01:49:37;;;;;;;18.35;5.97;;;;;;;13.52;72.30;102246.84;7393585;19;20015;-47
2023/05/28 01:52:06;;;;;;;15.23;6.78;;;;;;;13.55;71.82;102254.66;7393455;19;20370;-47
2023/05/28 01:54:34;;;;;;;17.63;6.35;;;;;;;13.30;72.85;102241.16;7394608;19;20018;-49
2023/05/28 01:57:01;;;;;;;17.02;6.60;;;;;;;13.28;72.79;102227.06;7394983;19;20035;-48
2023/05/28 01:59:29;;;;;;;14.82;5.72;;;;;;;13.12;73.48;102222.66;7393228;19;20015;-50
2023/05/28 02:01:56;;;;;;;16.40;6.00;;;;;;;13.26;72.68;102229.84;7394457;19;20094;-48
2023/05/28 02:04:24;;;;;;;15.07;5.95;;;;;;;13.25;72.17;102228.13;7394177;19;20055;-49
2023/05/28 02:06:51;;;;;;;14.70;6.35;;;;;;;13.15;72.61;102226.94;7393045;19;20091;-46
2023/05/28 02:09:19;;;;;;;15.63;5.93;;;;;;;13.17;72.40;102230.38;7393261;19;20476;-50
2023/05/28 02:11:46;;;;;;;13.27;6.68;;;;;;;13.17;72.37;102217.94;7395189;19;20067;-48
2023/05/28 02:14:14;;;;;;;15.13;6.75;;;;;;;13.18;72.22;102226.75;7394021;19;20013;-47
2023/05/28 02:16:42;;;;;;;14.70;6.82;;;;;;;13.14;72.48;102228.75;7392862;19;20011;-48
2023/05/28 02:19:11;;;;;;;16.77;7.35;;;;;;;13.29;72.12;102234.97;7394100;19;20518;-47
2023/05/28 02:21:38;;;;;;;15.50;7.40;;;;;;;13.28;71.77;102225.28;7392439;19;20015;-47
2023/05/28 02:24:06;;;;;;;18.30;9.30;;;;;;;13.20;71.82;102218.66;7394141;19;20018;-47
2023/05/28 02:26:33;;;;;;;15.23;8.10;;;;;;;13.16;71.90;102220.66;7392173;19;20045;-47
2023/05/28 02:29:00;;;;;;;15.90;7.25;;;;;;;13.09;72.20;102222.00;7392734;19;20015;-46
2023/05/28 02:31:27;;;;;;;16.42;7.25;;;;;;;13.09;72.22;102222.00;7391998;19;20028;-49
2023/05/28 02:33:55;;;;;;;17.73;6.47;;;;;;;13.06;72.24;102223.03;7393396;19;20031;-46
2023/05/28 02:36:22;;;;;;;18.45;7.10;;;;;;;13.07;72.27;102218.56;7392753;19;20135;-46
2023/05/28 02:38:50;;;;;;;14.20;6.28;;;;;;;13.03;72.62;102217.06;7392299;19;20100;-47
2023/05/28 02:41:17;;;;;;;17.15;6.45;;;;;;;13.02;72.57;102232.16;7391995;19;20027;-49
2023/05/28 02:43:44;;;;;;;16.50;6.38;;;;;;;13.02;72.57;102229.50;7393701;19;20025;-48
2023/05/28 02:46:11;;;;;;;17.63;6.80;;;;;;;13.02;72.57;102231.31;7391855;19;20015;-47
2023/05/28 02:48:39;;;;;;;13.05;6.00;;;;;;;13.00;72.82;102238.50;7392667;19;20014;-48
2023/05/28 02:51:06;;;;;;;16.42;6.38;;;;;;;12.90;72.92;102239.06;7392178;19;20345;-51
2023/05/28 02:53:33;;;;;;;15.68;6.15;;;;;;;12.54;74.15;102246.53;7393229;19;20026;-47
2023/05/28 02:56:00;;;;;;;15.57;6.82;;;;;;;12.57;74.54;102238.38;7392541;19;20504;-49
2023/05/28 02:58:32;;;;;;;15.02;6.28;;;;;;;12.77;73.57;102240.72;7390547;19;20018;-49
2023/05/28 03:00:59;;;;;;;14.52;6.43;;;;;;;12.91;72.91;102245.22;7392015;19;20018;-48
2023/05/28 03:03:26;;;;;;;15.98;6.65;;;;;;;12.97;72.57;102242.19;7392605;19;20048;-47
2023/05/28 03:05:54;;;;;;;15.80;6.22;;;;;;;12.93;72.78;102236.22;7391852;19;20018;-52
2023/05/28 03:08:21;;;;;;;14.77;6.20;;;;;;;12.85;73.03;102227.81;7391751;19;20023;-48
2023/05/28 03:10:48;;;;;;;14.98;6.78;;;;;;;12.85;72.83;102230.50;7391377;19;20113;-48
2023/05/28 03:13:16;;;;;;;17.85;6.57;;;;;;;12.83;73.10;102227.09;7392269;19;20073;-48
2023/05/28 03:15:43;;;;;;;12.93;6.53;;;;;;;12.89;72.70;102224.03;7390329;19;20059;-47
2023/05/28 03:18:10;;;;;;;13.82;6.30;;;;;;;12.92;72.43;102226.53;7392230;19;20043;-46
2023/05/28 03:20:38;;;;;;;16.90;7.30;;;;;;;12.78;72.62;102234.50;7390790;19;20030;-47
2023/05/28 03:23:05;;;;;;;15.05;6.60;;;;;;;12.64;73.03;102226.47;7392707;19;20015;-47
2023/05/28 03:25:33;;;;;;;14.45;6.40;;;;;;;12.73;72.88;102223.25;7391331;19;20018;-51
2023/05/28 03:28:00;;;;;;;14.23;6.07;;;;;;;12.77;72.36;102226.59;7385586;19;20342;-48
2023/05/28 03:30:27;;;;;;;14.40;6.43;;;;;;;12.78;72.15;102229.16;7390775;19;20512;-48
2023/05/28 03:32:57;;;;;;;15.30;6.07;;;;;;;12.80;71.84;102234.38;7391721;19;20035;-50
2023/05/28 03:35:25;;;;;;;14.02;6.65;;;;;;;12.81;71.99;102228.09;7391519;19;20035;-48
2023/05/28 03:37:52;;;;;;;15.32;7.00;;;;;;;12.56;72.67;102221.59;7391775;19;20025;-50
2023/05/28 03:40:19;;;;;;;14.98;6.45;;;;;;;12.22;74.07;102228.00;7390099;19;20010;-49
2023/05/28 03:42:46;;;;;;;14.70;6.72;;;;;;;11.97;75.05;102223.19;7391188;19;20042;-50
2023/05/28 03:45:14;;;;;;;14.80;6.50;;;;;;;12.21;74.50;102223.63;7390564;19;20031;-50
2023/05/28 03:47:41;;;;;;;15.23;6.65;;;;;;;12.52;72.81;102229.84;7389938;19;20031;-48
2023/05/28 03:50:08;;;;;;;14.52;6.35;;;;;;;12.64;72.44;102226.47;7388773;19;20097;-46
2023/05/28 03:52:35;;;;;;;13.85;6.57;;;;;;;12.66;72.30;102222.75;7389744;19;20223;-46
2023/05/28 03:55:03;;;;;;;14.50;6.38;;;;;;;12.72;72.07;102224.19;7390729;19;20028;-50
2023/05/28 03:57:30;;;;;;;14.32;6.68;;;;;;;12.84;72.12;102219.97;7390820;19;20474;-46
2023/05/28 03:59:57;;;;;;;14.02;6.78;;;;;;;12.96;71.66;102218.38;7389719;19;20014;-48
2023/05/28 04:02:24;;;;;;;17.02;6.95;;;;;;;12.95;71.43;102221.97;7390834;19;20041;-48
2023/05/28 04:04:51;;;;;;;16.48;6.68;;;;;;;12.95;71.76;102219.31;7390603;19;20023;-48
2023/05/28 04:07:19;;;;;;;14.52;6.85;;;;;;;12.93;71.86;102219.41;7389614;19;20015;-47
2023/05/28 04:09:46;;;;;;;14.93;6.93;;;;;;;12.94;71.91;102223.78;7390001;19;20494;-46
2023/05/28 04:12:14;;;;;;;15.60;7.28;;;;;;;12.93;72.06;102219.41;7390632;19;20123;-49
2023/05/28 04:14:41;;;;;;;16.90;7.10;;;;;;;12.96;71.77;102223.69;7389946;19;20020;-47
2023/05/28 04:17:11;;;;;;;15.20;6.70;;;;;;;12.93;71.89;102222.06;7390436;19;20018;-50
2023/05/28 04:19:39;;;;;;;17.65;7.10;;;;;;;12.92;71.86;102225.66;7389982;19;20495;-47
2023/05/28 04:22:08;;;;;;;19.02;6.95;;;;;;;12.99;72.03;102232.34;7386978;19;20024;-47
2023/05/28 04:24:35;;;;;;;14.70;6.88;;;;;;;12.93;72.03;102228.25;7389712;19;20035;-51
2023/05/28 04:27:03;;;;;;;13.45;6.70;;;;;;;12.92;72.27;102223.84;7386518;19;20551;-48
2023/05/28 04:29:31;;;;;;;15.90;6.90;;;;;;;12.86;72.60;102218.94;7389148;19;20082;-52
2023/05/28 04:31:58;;;;;;;15.70;7.25;;;;;;;12.91;72.42;102222.16;7388096;19;20078;-48
2023/05/28 04:34:25;;;;;;;15.98;7.18;;;;;;;12.97;72.32;102228.03;7389933;19;20069;-47
2023/05/28 04:36:53;;;;;;;14.50;7.20;;;;;;;12.97;72.59;102222.72;7389416;19;20074;-47
2023/05/28 04:39:22;;;;;;;15.13;7.07;;;;;;;13.05;72.10;102231.97;7391194;19;20019;-46
2023/05/28 04:41:49;;;;;;;19.08;7.20;;;;;;;13.12;71.69;102235.09;7394017;19;20015;-47
2023/05/28 04:44:17;;;;;;;16.67;7.03;;;;;;;13.17;71.85;102244.53;7397363;19;20029;-47
2023/05/28 04:46:45;;;;;;;15.73;7.13;;;;;;;13.26;71.74;102237.81;7395934;19;20025;-46
2023/05/28 04:49:12;;;;;;;15.55;7.03;;;;;;;13.25;71.70;102241.44;7396216;19;20014;-48
2023/05/28 04:51:40;;;;;;;14.98;6.68;;;;;;;13.26;72.16;102239.63;7393561;19;20018;-48
2023/05/28 04:54:07;;;;;;;15.25;6.78;;;;;;;13.24;72.15;102241.50;7396892;19;20085;-50
2023/05/28 04:56:38;;;;;;;17.27;6.88;;;;;;;13.34;71.75;102235.53;7396269;19;20028;-49
2023/05/28 04:59:09;;;;;;;15.05;7.00;;;;;;;13.38;71.45;102233.53;7396525;19;20010;-46
2023/05/28 05:01:38;;;;;;;14.02;6.72;;;;;;;13.36;71.58;102233.66;7393587;19;20122;-46
2023/05/28 05:04:06;;;;;;;14.40;7.00;;;;;;;13.37;71.55;102232.69;7396635;19;20503;-47
2023/05/28 05:06:34;;;;;;;16.60;7.35;;;;;;;13.50;71.50;102230.13;7395564;19;20025;-49
2023/05/28 05:09:01;;;;;;;17.20;7.03;;;;;;;13.46;71.33;102228.59;7394667;19;20019;-50
2023/05/28 05:11:28;;;;;;;16.08;6.82;;;;;;;13.48;71.51;102237.34;7394728;19;20014;-47
2023/05/28 05:13:56;;;;;;;16.08;7.55;;;;;;;13.55;71.47;102235.16;7396456;19;20515;-48
2023/05/28 05:16:23;;;;;;;13.32;6.75;;;;;;;13.57;71.59;102241.25;7395701;19;20015;-49
2023/05/28 05:18:50;;;;;;;14.93;6.70;;;;;;;13.62;71.80;102245.34;7395528;19;20040;-50
2023/05/28 05:21:17;;;;;;;15.73;6.80;;;;;;;13.67;71.63;102239.72;7393962;19;20029;-51
2023/05/28 05:23:44;;;;;;;14.98;6.28;;;;;;;13.76;71.28;102236.47;7396486;19;20018;-49
2023/05/28 05:26:16;;;;;;;15.25;6.82;;;;;;;13.73;71.29;102235.81;7394922;19;20378;-48
2023/05/28 05:28:44;;;;;;;16.50;7.53;;;;;;;13.80;71.32;102235.31;7394897;19;20015;-48
2023/05/28 05:31:12;;;;;;;14.55;6.70;;;;;;;13.80;71.50;102237.13;7394318;19;20086;-47
2023/05/28 05:33:42;;;;;;;14.27;7.07;;;;;;;13.80;71.43;102234.47;7396013;19;20014;-48
2023/05/28 05:36:10;;;;;;;14.05;6.95;;;;;;;13.77;71.64;102243.50;7395380;19;20123;-48
2023/05/28 05:38:38;;;;;;;16.90;7.10;;;;;;;13.75;71.88;102240.09;7394978;19;20032;-47
2023/05/28 05:41:05;;;;;;;15.02;7.53;;;;;;;13.81;71.93;102245.03;7394400;19;20364;-46
2023/05/28 05:43:32;;;;;;;14.88;7.03;;;;;;;13.94;71.60;102246.91;7395568;19;20044;-47
2023/05/28 05:45:59;;;;;;;17.45;7.10;;;;;;;14.06;71.51;102246.97;7394783;19;20484;-48
2023/05/28 05:48:29;;;;;;;18.77;7.97;;;;;;;14.13;71.40;102247.44;7392709;19;20094;-48
2023/05/28 05:50:58;;;;;;;15.40;7.50;;;;;;;14.12;71.49;102237.75;7392242;19;20033;-48
2023/05/28 05:53:25;;;;;;;14.98;7.20;;;;;;;14.21;71.10;102237.13;7395528;19;20426;-50
2023/05/28 05:55:52;;;;;;;18.40;7.72;;;;;;;14.20;71.50;102240.75;7395126;19;20014;-51
2023/05/28 05:58:21;;;;;;;13.73;7.22;;;;;;;14.25;71.15;102241.31;7393915;19;20102;-48
2023/05/28 06:00:48;;;;;;;17.65;7.40;;;;;;;14.33;71.07;102244.31;7394165;19;20122;-52
2023/05/28 06:03:15;;;;;;;14.43;7.20;;;;;;;14.44;71.10;102242.78;7394527;19;20027;-50
2023/05/28 06:05:43;;;;;;;16.25;6.97;;;;;;;14.50;71.04;102245.91;7394418;19;20019;-48
2023/05/28 06:08:10;;;;;;;17.05;8.35;;;;;;;14.54;70.75;102246.56;7393204;19;20026;-48
2023/05/28 06:10:37;;;;;;;18.83;8.10;;;;;;;14.57;70.60;102249.00;7393127;19;20026;-49
2023/05/28 06:13:04;;;;;;;16.83;7.38;;;;;;;14.64;70.37;102244.97;7394229;19;20023;-52
2023/05/28 06:15:31;;;;;;;15.02;7.13;;;;;;;14.70;70.28;102251.72;7392065;19;20332;-48
2023/05/28 06:17:59;;;;;;;18.30;7.78;;;;;;;14.69;70.42;102261.56;7394472;19;20155;-48
2023/05/28 06:20:27;;;;;;;17.90;7.57;;;;;;;14.76;70.38;102257.50;7391333;19;20022;-51
2023/05/28 06:22:54;;;;;;;15.48;7.63;;;;;;;14.74;70.71;102253.22;7392402;19;20025;-52
2023/05/28 06:25:22;;;;;;;17.77;8.00;;;;;;;14.75;70.96;102255.78;7393347;19;20014;-48
2023/05/28 06:27:49;;;;;;;18.05;7.47;;;;;;;14.78;71.07;102255.59;7390677;19;20081;-51
2023/05/28 06:30:17;;;;;;;15.65;7.47;;;;;;;14.75;70.93;102258.44;7392205;19;20091;-51
2023/05/28 06:32:44;;;;;;;17.33;7.97;;;;;;;14.70;71.25;102265.91;7393763;19;20021;-51
2023/05/28 06:35:11;;;;;;;16.77;7.53;;;;;;;14.76;71.12;102259.31;7393557;19;20024;-49
2023/05/28 06:37:39;;;;;;;18.95;7.65;;;;;;;14.79;71.04;102251.94;7393312;19;20014;-48
2023/05/28 06:40:09;;;;;;;18.52;8.23;;;;;;;14.79;71.09;102264.44;7392436;19;20022;-48
2023/05/28 06:42:38;;;;;;;15.93;7.50;;;;;;;14.81;70.99;102268.72;7393851;19;20030;-51
2023/05/28 06:45:06;;;;;;;18.25;7.93;;;;;;;14.81;71.19;102266.06;7393338;19;20115;-49
2023/05/28 06:47:33;;;;;;;18.27;7.68;;;;;;;14.90;71.11;102269.06;7392513;19;20018;-49
2023/05/28 06:50:00;;;;;;;17.73;7.88;;;;;;;14.95;70.84;102266.91;7392598;19;20403;-47
2023/05/28 06:52:28;;;;;;;15.50;7.82;;;;;;;15.03;70.61;102267.25;7393231;19;20014;-49
2023/05/28 06:54:55;;;;;;;19.55;7.95;;;;;;;15.11;70.61;102272.94;7392710;19;20059;-50
2023/05/28 06:57:22;;;;;;;16.50;7.95;;;;;;;15.14;70.70;102279.84;7392859;19;20022;-49
2023/05/28 06:59:50;;;;;;;20.08;7.32;;;;;;;15.27;70.44;102264.72;7390111;19;20376;-50
2023/05/28 07:02:17;;;;;;;16.17;7.55;;;;;;;15.23;70.35;102264.09;7392826;19;20026;-49
2023/05/28 07:04:44;;;;;;;14.98;7.10;;;;;;;15.26;70.03;102268.34;7392468;19;20022;-48
2023/05/28 07:07:12;;;;;;;16.92;7.95;;;;;;;15.24;70.09;102272.94;7392598;19;20014;-48
2023/05/28 07:09:39;;;;;;;16.25;7.65;;;;;;;15.22;70.24;102275.69;7391736;19;20140;-50
2023/05/28 07:12:06;;;;;;;16.45;7.32;;;;;;;15.27;70.03;102281.59;7390911;19;20502;-52
2023/05/28 07:14:34;;;;;;;16.45;7.45;;;;;;;15.35;70.21;102283.72;7391963;19;20015;-48
2023/05/28 07:17:01;;;;;;;15.18;6.95;;;;;;;15.42;70.35;102281.50;7392502;19;20015;-49
2023/05/28 07:19:30;;;;;;;19.48;7.45;;;;;;;15.46;70.09;102283.00;7391795;19;20341;-48
2023/05/28 07:21:58;;;;;;;17.65;7.78;;;;;;;15.52;70.11;102285.22;7390684;19;20082;-51
2023/05/28 07:24:25;;;;;;;18.98;7.47;;;;;;;15.63;69.85;102279.97;7390989;19;20022;-50
2023/05/28 07:26:52;;;;;;;19.67;7.95;;;;;;;15.71;69.41;102287.47;7391637;19;20018;-49
2023/05/28 07:29:19;;;;;;;16.13;6.25;;;;;;;15.73;69.14;102291.75;7391225;19;20043;-49
2023/05/28 07:31:46;;;;;;;17.08;7.43;;;;;;;15.72;69.59;102287.38;7390068;19;20019;-47
2023/05/28 07:34:14;;;;;;;17.25;6.93;;;;;;;15.75;69.66;102287.13;7391471;19;20104;-47
2023/05/28 07:36:41;;;;;;;17.35;6.43;;;;;;;15.77;69.27;102289.72;7391510;19;20053;-47
2023/05/28 07:39:10;;;;;;;17.52;6.63;;;;;;;15.83;69.08;102294.59;7389521;19;20017;-46
2023/05/28 07:41:37;;;;;;;16.35;7.43;;;;;;;15.80;68.44;102297.53;7390357;19;20392;-47
2023/05/28 07:44:06;;;;;;;15.77;6.20;;;;;;;15.77;68.78;102295.06;7391221;19;20043;-46
2023/05/28 07:46:34;;;;;;;17.77;6.68;;;;;;;15.82;68.88;102291.09;7390969;19;20011;-50
2023/05/28 07:49:02;;;;;;;17.33;7.03;;;;;;;15.86;69.14;102290.88;7389181;19;20122;-48
2023/05/28 07:51:29;;;;;;;18.33;7.28;;;;;;;15.91;68.89;102291.38;7389893;19;20489;-48
2023/05/28 07:53:56;;;;;;;16.17;6.68;;;;;;;15.90;68.77;102298.56;7389550;19;20374;-48
2023/05/28 07:56:23;;;;;;;14.07;6.50;;;;;;;15.89;68.74;102291.50;7388528;19;20078;-48
2023/05/28 07:58:51;;;;;;;19.15;7.70;;;;;;;15.95;68.41;102285.75;7390024;19;20011;-47
2023/05/28 08:01:18;;;;;;;19.17;7.20;;;;;;;15.92;68.46;102285.94;7389504;19;20011;-48
2023/05/28 08:03:50;;;;;;;17.52;7.28;;;;;;;15.98;68.20;102288.16;7389705;19;20043;-48
2023/05/28 08:06:18;;;;;;;19.40;7.28;;;;;;;16.04;68.18;102292.22;7390893;19;20085;-48
2023/05/28 08:08:45;;;;;;;21.90;7.53;;;;;;;16.06;68.02;102290.28;7388882;19;20018;-48
2023/05/28 08:11:14;;;;;;;17.45;7.65;;;;;;;16.05;68.12;102286.75;7389257;19;20094;-50
2023/05/28 08:13:41;;;;;;;19.77;7.10;;;;;;;16.13;68.14;102288.88;7389346;19;20494;-53
2023/05/28 08:16:12;;;;;;;16.80;7.10;;;;;;;16.19;68.16;102288.44;7389983;19;20018;-48
2023/05/28 08:18:39;;;;;;;17.30;7.45;;;;;;;16.26;67.98;102294.22;7389075;19;20065;-50
2023/05/28 08:21:07;;;;;;;17.45;6.97;;;;;;;16.37;67.57;102288.03;7389455;19;20484;-52
2023/05/28 08:23:34;;;;;;;17.95;7.35;;;;;;;16.40;67.27;102288.69;7390433;19;20475;-50
2023/05/28 08:26:02;;;;;;;15.80;7.20;;;;;;;16.49;66.73;102289.84;7389688;19;20019;-51
2023/05/28 08:28:30;;;;;;;17.98;7.40;;;;;;;16.50;66.73;102292.38;7387708;19;20024;-51
2023/05/28 08:30:57;;;;;;;17.98;6.70;;;;;;;16.50;66.56;102287.03;7389214;19;20014;-49
2023/05/28 08:33:25;;;;;;;17.90;6.43;;;;;;;16.58;66.95;102283.78;7389967;19;20030;-47
2023/05/28 08:35:52;;;;;;;18.27;6.97;;;;;;;16.65;66.91;102287.72;7389521;19;20014;-52
2023/05/28 08:38:19;;;;;;;17.30;7.70;;;;;;;16.67;66.85;102280.41;7388495;19;20021;-49
2023/05/28 08:40:54;;;;;;;18.27;7.15;;;;;;;16.70;66.54;102279.34;7389473;19;20023;-48
2023/05/28 08:43:21;;;;;;;18.77;7.63;;;;;;;16.68;66.72;102284.81;7388334;19;20519;-47
2023/05/28 08:45:52;;;;;;;16.33;6.32;;;;;;;16.74;66.85;102283.53;7389439;19;20025;-50
2023/05/28 08:48:22;;;;;;;16.45;7.13;;;;;;;16.78;66.20;102285.00;7388765;19;20019;-51
2023/05/28 08:50:51;;;;;;;18.95;7.85;;;;;;;16.82;65.93;102281.13;7389464;19;20018;-48
2023/05/28 08:53:22;;;;;;;16.63;7.38;;;;;;;16.91;65.61;102276.91;7389170;19;20488;-48
2023/05/28 08:55:49;;;;;;;15.77;7.25;;;;;;;16.99;65.20;102277.19;7387492;19;20050;-47
2023/05/28 08:58:18;;;;;;;16.58;6.75;;;;;;;17.07;64.99;102273.91;7387832;19;20032;-48
2023/05/28 09:00:46;;;;;;;15.77;7.07;;;;;;;17.11;65.13;102264.66;7387935;19;20094;-48
2023/05/28 09:03:13;;;;;;;15.88;6.43;;;;;;;17.16;65.61;102267.84;7389697;19;20014;-51
2023/05/28 09:05:40;;;;;;;19.02;7.10;;;;;;;17.18;66.39;102272.13;7388877;19;20019;-49
2023/05/28 09:08:10;;;;;;;15.52;6.50;;;;;;;17.19;66.26;102268.44;7388721;19;20039;-47
2023/05/28 09:10:38;;;;;;;18.23;6.85;;;;;;;17.21;66.43;102263.84;7387209;19;20043;-47
2023/05/28 09:13:06;;;;;;;17.20;6.68;;;;;;;17.26;66.03;102264.34;7388834;19;20578;-47
2023/05/28 09:15:35;;;;;;;17.30;6.45;;;;;;;17.36;65.39;102261.81;7388316;19;20086;-49
2023/05/28 09:18:06;;;;;;;15.85;6.38;;;;;;;17.49;64.46;102259.00;7388973;19;20022;-47
2023/05/28 09:20:33;;;;;;;15.45;6.28;;;;;;;17.57;63.34;102263.75;7387721;19;20026;-48
2023/05/28 09:23:03;;;;;;;15.70;6.57;;;;;;;17.56;63.30;102267.41;7387377;19;20352;-48
2023/05/28 09:25:35;;;;;;;18.58;6.80;;;;;;;17.61;62.76;102266.06;7386198;19;20033;-48
2023/05/28 09:28:03;;;;;;;15.90;6.70;;;;;;;17.59;62.86;102265.34;7395483;19;20098;-52
2023/05/28 09:30:35;;;;;;;16.40;6.53;;;;;;;17.65;62.44;102264.84;7394444;19;20044;-52
2023/05/28 09:33:04;;;;;;;13.77;5.40;;;;;;;17.65;62.20;102258.63;7396277;19;20081;-48
2023/05/28 09:35:32;;;;;;;17.17;6.40;;;;;;;17.81;61.56;102269.00;7395147;19;20487;-49
2023/05/28 09:38:06;;;;;;;17.98;6.13;;;;;;;17.90;61.51;102262.94;7395623;19;20367;-48
2023/05/28 09:40:43;;;;;;;15.00;6.10;;;;;;;17.92;61.91;102261.81;7394155;19;20026;-48
2023/05/28 09:43:11;;;;;;;17.77;6.50;;;;;;;17.98;62.03;102260.47;7397183;19;20019;-53
2023/05/28 09:45:38;;;;;;;16.23;6.13;;;;;;;18.10;61.20;102264.84;7395695;19;20204;-50
2023/05/28 09:48:05;;;;;;;18.73;6.75;;;;;;;18.05;60.22;102263.50;7396593;19;20094;-49
2023/05/28 09:50:32;;;;;;;18.48;6.53;;;;;;;18.07;60.02;102264.22;7394050;19;20107;-51
2023/05/28 09:53:03;;;;;;;15.02;6.28;;;;;;;18.17;58.56;102260.69;7395835;19;20049;-49
2023/05/28 09:55:32;;;;;;;16.45;5.80;;;;;;;18.10;58.34;102259.47;7393724;19;20019;-49
2023/05/28 09:58:04;;;;;;;15.88;6.07;;;;;;;18.16;58.31;102260.78;7395648;19;20121;-48
2023/05/28 10:00:32;;;;;;;17.40;6.22;;;;;;;18.21;58.19;102254.09;7394640;19;20090;-51
2023/05/28 10:03:23;;;;;;;16.20;6.15;;;;;;;18.29;57.49;102252.59;7395319;19;20136;-53
2023/05/28 10:06:14;;;;;;;18.00;6.28;;;;;;;18.45;56.48;102253.88;7394369;19;20044;-51
2023/05/28 10:08:45;;;;;;;16.60;6.43;;;;;;;18.41;56.38;102257.78;7393298;19;20584;-50
2023/05/28 10:11:16;;;;;;;13.93;5.78;;;;;;;18.42;55.28;102251.44;7390504;19;20037;-53
2023/05/28 10:13:43;;;;;;;14.38;5.32;;;;;;;18.49;55.67;102257.16;7390541;19;20014;-52
2023/05/28 10:16:11;;;;;;;17.63;6.53;;;;;;;18.55;55.65;102250.44;7393730;19;20022;-53
2023/05/28 10:18:41;;;;;;;18.73;6.55;;;;;;;18.54;55.59;102246.03;7392126;19;20019;-53
2023/05/28 10:21:10;;;;;;;15.27;5.90;;;;;;;18.71;55.59;102253.56;7393097;19;20068;-51
2023/05/28 10:23:40;;;;;;;13.25;5.75;;;;;;;18.68;55.36;102238.53;7394623;19;20018;-52
2023/05/28 10:26:08;;;;;;;14.23;4.93;;;;;;;18.72;54.96;102244.53;7392557;19;20043;-48
2023/05/28 10:28:35;;;;;;;15.00;5.88;;;;;;;18.81;54.20;102232.16;7392010;19;20491;-48
2023/05/28 10:31:05;;;;;;;15.68;5.20;;;;;;;18.96;53.87;102230.84;7393035;19;20081;-49
2023/05/28 10:33:43;;;;;;;13.10;5.50;;;;;;;19.08;53.27;102228.94;7394357;19;20022;-50
2023/05/28 10:36:13;;;;;;;15.77;5.50;;;;;;;19.08;53.29;102224.44;7391519;19;20025;-51
2023/05/28 10:38:44;;;;;;;13.27;5.10;;;;;;;19.14;52.82;102225.72;7391963;19;20523;-52
2023/05/28 10:41:18;;;;;;;14.95;5.35;;;;;;;19.19;52.56;102226.16;7390761;19;20043;-49
2023/05/28 10:43:47;;;;;;;17.15;5.95;;;;;;;19.13;53.14;102226.72;7393303;19;20043;-50
2023/05/28 10:46:24;;;;;;;14.75;5.55;;;;;;;19.07;53.41;102230.75;7391102;19;20023;-51
2023/05/28 10:49:04;;;;;;;14.90;5.05;;;;;;;19.13;53.07;102227.56;7391945;19;20030;-52
2023/05/28 10:51:59;;;;;;;13.70;4.88;;;;;;;19.15;53.35;102228.25;7392022;19;20111;-49
2023/05/28 10:54:35;;;;;;;14.18;5.22;;;;;;;19.03;53.09;102232.00;7391670;19;20033;-50
2023/05/28 10:57:08;;;;;;;14.68;6.10;;;;;;;19.09;52.19;102234.19;7392344;19;20361;-52
2023/05/28 10:59:39;;;;;;;15.82;5.35;;;;;;;19.15;51.91;102228.25;7392443;19;20051;-54
2023/05/28 11:02:07;;;;;;;12.85;5.22;;;;;;;19.21;51.14;102227.75;7391353;19;20490;-49
2023/05/28 11:04:35;;;;;;;12.77;5.03;;;;;;;19.19;51.36;102227.03;7392276;19;20010;-51
2023/05/28 11:07:04;;;;;;;11.85;4.68;;;;;;;19.22;51.35;102223.22;7390529;19;20372;-54
2023/05/28 11:09:32;;;;;;;15.15;5.47;;;;;;;19.28;51.87;102220.00;7391111;19;20022;-53
2023/05/28 11:12:01;;;;;;;14.35;5.35;;;;;;;19.43;50.86;102228.56;7390722;19;20082;-50
2023/05/28 11:14:33;;;;;;;14.18;5.43;;;;;;;19.39;50.80;102227.13;7392155;19;20077;-53
2023/05/28 11:17:00;;;;;;;15.52;5.10;;;;;;;19.38;51.26;102226.25;7393744;19;20011;-54
2023/05/28 11:19:27;;;;;;;13.52;5.78;;;;;;;19.38;50.23;102228.94;7391262;19;20039;-53
2023/05/28 11:21:57;;;;;;;15.52;5.60;;;;;;;19.40;50.37;102224.31;7391209;19;20028;-54